Arcadia, South Carolina
Current Conditions -  °F | °C
As of 8:15 PM on Saturday 22 Nov 2014 (Local Time) from KSPA Reporting Station
Broken Clouds Broken Clouds  
Wind Chill: 45°   Ceiling: 4400
Heat Index: 45°   Visibility: 10mi
Dew Point: 30°   Wind: 0mph
Humidity: 57%   Direction: NA
Pressure: 30.33"   Gusts: NA
Location:  34.96°N, 81.99°W
Report Text: KSPA 230115Z AUTO 00000KT 10SM BKN044 07/M01 A3033 RMK AO2
Loading
Personal Weather Stations






























Interactive Weather Map New forecast layout! Learn more

10-Day Weather Forecast

Advertisements
Track Severe Weather on mobile